createdAt,value
2017-06-28T00:02:14.234Z,23.70
2017-06-28T00:04:40.285Z,23.80
2017-06-28T00:07:06.333Z,23.80
2017-06-28T00:09:32.389Z,23.80
2017-06-28T00:11:58.442Z,23.80
2017-06-28T00:14:25.234Z,23.80
2017-06-28T00:16:51.281Z,23.80
2017-06-28T00:19:17.350Z,23.80
2017-06-28T00:21:43.430Z,23.80
2017-06-28T00:24:09.482Z,23.80
2017-06-28T00:26:35.530Z,23.80
2017-06-28T00:29:01.609Z,23.80
2017-06-28T00:31:27.659Z,23.60
2017-06-28T00:33:53.721Z,23.70
2017-06-28T00:36:19.777Z,23.70
2017-06-28T00:38:45.839Z,23.70
2017-06-28T00:41:11.929Z,23.70
2017-06-28T00:43:37.983Z,23.70
2017-06-28T00:46:04.045Z,23.70
2017-06-28T00:48:30.088Z,23.60
2017-06-28T00:51:11.107Z,23.60
2017-06-28T00:53:37.150Z,23.60
2017-06-28T00:56:03.219Z,23.70
2017-06-28T00:58:29.286Z,23.60
2017-06-28T01:00:55.348Z,23.70
2017-06-28T01:03:21.450Z,23.60
2017-06-28T01:05:47.522Z,23.60
2017-06-28T01:08:13.593Z,23.60
2017-06-28T01:10:39.651Z,23.70
2017-06-28T01:13:05.719Z,23.70
2017-06-28T01:15:31.774Z,23.60
2017-06-28T01:31:28.902Z,23.50
2017-06-28T01:33:54.954Z,23.50
2017-06-28T01:36:21.009Z,23.50
2017-06-28T01:38:47.593Z,23.40
2017-06-28T01:41:13.690Z,23.30
2017-06-28T01:43:39.758Z,23.40
2017-06-28T01:46:36.864Z,23.30
2017-06-28T01:49:02.919Z,23.40
2017-06-28T01:51:28.998Z,23.30
2017-06-28T01:53:55.791Z,23.30
2017-06-28T01:56:21.854Z,23.30
2017-06-28T01:58:47.893Z,23.30
2017-06-28T02:01:13.935Z,23.20
2017-06-28T02:03:39.999Z,23.20
2017-06-28T02:06:06.058Z,23.20
2017-06-28T02:08:32.121Z,23.20
2017-06-28T02:10:58.205Z,23.20
2017-06-28T02:13:24.257Z,23.20
2017-06-28T02:15:50.297Z,23.20
2017-06-28T02:18:16.363Z,23.30
2017-06-28T02:20:42.415Z,23.30
2017-06-28T02:23:08.473Z,23.20
2017-06-28T02:25:34.523Z,23.30
2017-06-28T02:28:00.554Z,23.30
2017-06-28T02:30:26.597Z,23.30
2017-06-28T02:32:52.669Z,23.40
2017-06-28T02:35:18.710Z,23.30
2017-06-28T02:37:44.769Z,23.20
2017-06-28T02:40:10.810Z,23.30
2017-06-28T02:42:36.869Z,23.30
2017-06-28T02:45:02.920Z,23.30
2017-06-28T02:47:28.968Z,23.20
2017-06-28T02:50:09.975Z,23.20
2017-06-28T02:52:36.017Z,23.20
2017-06-28T02:55:02.078Z,23.20
2017-06-28T02:57:28.141Z,23.10
2017-06-28T02:59:54.189Z,23.20
2017-06-28T03:02:35.946Z,23.20
2017-06-28T03:05:02.021Z,23.20
2017-06-28T03:07:28.070Z,23.20
2017-06-28T03:09:54.150Z,23.30
2017-06-28T03:12:20.937Z,23.40
2017-06-28T03:15:01.974Z,23.40
2017-06-28T03:17:28.786Z,23.30
2017-06-28T03:19:54.843Z,23.30
2017-06-28T03:22:20.887Z,23.20
2017-06-28T03:24:46.937Z,23.30
2017-06-28T03:27:13.002Z,23.20
2017-06-28T03:29:39.860Z,23.30
2017-06-28T03:32:05.913Z,23.30
2017-06-28T03:34:31.967Z,23.30
2017-06-28T03:36:58.038Z,23.20
2017-06-28T03:39:24.082Z,23.30
2017-06-28T03:41:50.143Z,23.30
2017-06-28T03:44:16.181Z,23.30
2017-06-28T03:46:42.229Z,23.30
2017-06-28T03:49:08.295Z,23.30
2017-06-28T03:51:34.350Z,23.20
2017-06-28T03:54:00.401Z,23.20
2017-06-28T03:56:26.486Z,23.20
2017-06-28T03:58:52.558Z,23.30
2017-06-28T04:01:18.598Z,23.40
2017-06-28T04:03:44.647Z,23.40
2017-06-28T04:06:10.715Z,23.40
2017-06-28T04:08:36.781Z,23.40
2017-06-28T04:11:02.828Z,23.30
2017-06-28T04:13:28.880Z,23.40
2017-06-28T04:15:54.918Z,23.40
2017-06-28T04:18:20.982Z,23.30
2017-06-28T04:20:47.030Z,23.40
2017-06-28T04:23:13.073Z,23.40
2017-06-28T04:25:39.132Z,23.40
2017-06-28T04:28:05.185Z,23.30
2017-06-28T04:30:31.998Z,23.30
2017-06-28T04:32:58.049Z,23.40
2017-06-28T04:35:24.133Z,23.30
2017-06-28T04:37:50.197Z,23.30
2017-06-28T04:40:16.275Z,23.30
2017-06-28T04:42:42.325Z,23.40
2017-06-28T04:45:08.382Z,23.40
2017-06-28T04:47:34.430Z,23.40
2017-06-28T04:50:00.497Z,23.30
2017-06-28T04:52:26.549Z,23.30
2017-06-28T04:54:52.594Z,23.30
2017-06-28T04:57:18.670Z,23.30
2017-06-28T04:59:44.730Z,23.20
2017-06-28T05:02:10.778Z,23.20
2017-06-28T05:04:36.843Z,23.20
2017-06-28T05:07:02.890Z,23.20
2017-06-28T05:09:28.962Z,23.20
2017-06-28T05:11:55.048Z,23.30
2017-06-28T05:14:21.122Z,23.40
2017-06-28T05:16:47.174Z,23.40
2017-06-28T05:19:13.227Z,23.30
2017-06-28T05:21:39.290Z,23.30
2017-06-28T05:24:05.362Z,23.40
2017-06-28T05:26:31.410Z,23.30
2017-06-28T05:28:57.466Z,23.30
2017-06-28T05:31:23.530Z,23.40
2017-06-28T05:33:49.593Z,23.40
2017-06-28T05:36:15.666Z,23.40
2017-06-28T05:38:41.729Z,23.40
2017-06-28T05:41:07.795Z,23.40
2017-06-28T05:43:33.849Z,23.30
2017-06-28T05:45:59.910Z,23.30
2017-06-28T05:48:25.973Z,23.30
2017-06-28T05:50:52.066Z,23.30
2017-06-28T05:53:18.942Z,23.40
2017-06-28T05:55:45.759Z,23.40
2017-06-28T05:58:11.813Z,23.40
2017-06-28T06:00:37.867Z,23.30
2017-06-28T06:03:19.070Z,23.40
2017-06-28T06:05:45.194Z,23.50
2017-06-28T06:08:11.439Z,23.50
2017-06-28T06:11:08.610Z,23.40
2017-06-28T06:13:34.663Z,23.40
2017-06-28T06:16:00.699Z,23.50
2017-06-28T06:18:26.772Z,23.50
2017-06-28T06:20:52.814Z,23.50
2017-06-28T06:23:18.862Z,23.50
2017-06-28T06:25:44.936Z,23.60
2017-06-28T06:28:11.002Z,23.50
2017-06-28T06:30:37.082Z,23.40
2017-06-28T06:33:03.142Z,23.40
2017-06-28T06:35:29.221Z,23.40
2017-06-28T06:37:55.258Z,23.40
2017-06-28T06:40:21.342Z,23.30
2017-06-28T06:42:47.973Z,23.40
2017-06-28T06:45:14.042Z,23.50
2017-06-28T06:47:40.121Z,23.40
2017-06-28T06:50:06.173Z,23.20
2017-06-28T06:52:32.974Z,23.40
2017-06-28T06:54:59.005Z,23.40
2017-06-28T06:57:25.046Z,23.30
2017-06-28T06:59:51.094Z,23.30
2017-06-28T07:02:17.906Z,23.30
2017-06-28T07:04:43.951Z,23.20
2017-06-28T07:07:09.997Z,23.30
2017-06-28T07:09:36.086Z,23.40
2017-06-28T07:12:02.150Z,23.40
2017-06-28T07:14:28.269Z,23.40
2017-06-28T07:16:54.350Z,23.50
2017-06-28T07:19:20.414Z,23.40
2017-06-28T07:21:46.478Z,23.40
2017-06-28T07:24:12.531Z,23.40
2017-06-28T07:26:38.578Z,23.40
2017-06-28T07:29:04.618Z,23.40
2017-06-28T07:31:30.677Z,23.40
2017-06-28T07:33:56.710Z,23.40
2017-06-28T07:36:22.766Z,23.40
2017-06-28T07:38:48.822Z,23.40
2017-06-28T07:41:14.912Z,23.40
2017-06-28T07:43:40.953Z,23.40
2017-06-28T07:46:07.021Z,23.40
2017-06-28T07:48:48.144Z,23.40
2017-06-28T07:51:14.194Z,23.40
2017-06-28T07:53:40.328Z,23.40
2017-06-28T07:56:06.418Z,23.50
2017-06-28T07:58:32.446Z,23.40
2017-06-28T08:00:58.513Z,23.40
2017-06-28T08:03:25.302Z,23.40
2017-06-28T08:05:51.353Z,23.40
2017-06-28T08:08:17.394Z,23.30
2017-06-28T08:10:43.579Z,23.30
2017-06-28T08:13:09.619Z,23.40
2017-06-28T08:15:35.662Z,23.50
2017-06-28T08:18:01.733Z,23.40
2017-06-28T08:20:27.770Z,23.40
2017-06-28T08:22:53.821Z,23.50
2017-06-28T08:25:19.861Z,23.40
2017-06-28T08:27:45.911Z,23.30
2017-06-28T08:30:11.993Z,23.40
2017-06-28T08:32:38.109Z,23.50
2017-06-28T08:35:04.166Z,23.50
2017-06-28T08:37:30.218Z,23.60
2017-06-28T08:39:56.276Z,23.50
2017-06-28T08:42:22.352Z,23.50
2017-06-28T08:44:48.394Z,23.60
2017-06-28T08:47:14.461Z,23.60
2017-06-28T08:49:40.512Z,23.60
2017-06-28T08:52:06.575Z,23.60
2017-06-28T08:54:32.651Z,23.80
2017-06-28T08:56:58.818Z,23.80
2017-06-28T08:59:24.854Z,23.80
2017-06-28T09:02:05.901Z,23.70
2017-06-28T09:04:31.962Z,23.60
2017-06-28T09:06:58.007Z,23.70
2017-06-28T09:09:24.060Z,23.60
2017-06-28T09:11:50.214Z,23.70
2017-06-28T09:14:16.267Z,23.70
2017-06-28T09:16:42.355Z,23.70
2017-06-28T09:19:08.481Z,23.70
2017-06-28T09:21:34.530Z,23.70
2017-06-28T09:24:01.357Z,23.70
2017-06-28T09:26:27.398Z,23.70
2017-06-28T09:28:53.762Z,23.70
2017-06-28T09:31:19.891Z,23.60
2017-06-28T09:33:45.950Z,23.70
2017-06-28T09:36:12.020Z,23.80
2017-06-28T09:38:38.074Z,23.70
2017-06-28T09:41:04.178Z,23.80
2017-06-28T09:43:30.286Z,23.80
2017-06-28T09:45:56.402Z,23.90
2017-06-28T09:48:23.100Z,23.90
2017-06-28T09:50:49.221Z,23.80
2017-06-28T09:53:15.322Z,23.80
2017-06-28T09:55:41.620Z,23.90
2017-06-28T09:58:07.743Z,23.90
2017-06-28T10:00:33.810Z,24.00
2017-06-28T10:02:59.904Z,24.10
2017-06-28T10:05:25.955Z,24.20
2017-06-28T10:07:52.169Z,24.30
2017-06-28T10:10:18.205Z,24.30
2017-06-28T10:12:44.273Z,24.30
2017-06-28T10:15:10.353Z,24.30
2017-06-28T10:17:36.407Z,24.30
2017-06-28T10:20:02.468Z,24.30
2017-06-28T10:22:28.558Z,24.10
2017-06-28T10:24:54.646Z,24.10
2017-06-28T10:27:20.758Z,24.30
2017-06-28T10:29:46.985Z,24.30
2017-06-28T10:32:13.126Z,24.30
2017-06-28T10:34:39.174Z,24.30
2017-06-28T10:37:05.279Z,24.40
2017-06-28T10:39:31.347Z,24.40
2017-06-28T10:41:57.410Z,24.50
2017-06-28T10:44:23.464Z,24.50
2017-06-28T10:46:49.537Z,24.50
2017-06-28T10:49:15.699Z,24.50
2017-06-28T10:51:41.830Z,24.50
2017-06-28T10:54:07.878Z,24.60
2017-06-28T10:56:33.962Z,24.60
2017-06-28T10:59:00.154Z,24.60
2017-06-28T11:01:26.304Z,24.70
2017-06-28T11:03:53.151Z,24.70
2017-06-28T11:06:19.224Z,24.70
2017-06-28T11:08:45.292Z,24.70
2017-06-28T11:11:12.096Z,24.60
2017-06-28T11:13:38.256Z,24.60
2017-06-28T11:16:04.338Z,24.60
2017-06-28T11:18:30.386Z,24.70
2017-06-28T11:20:56.445Z,24.70
2017-06-28T11:23:22.550Z,24.70
2017-06-28T11:25:48.654Z,24.70
2017-06-28T11:28:14.769Z,24.70
2017-06-28T11:30:40.926Z,24.80
2017-06-28T11:33:07.688Z,24.80
2017-06-28T11:35:49.002Z,24.80
2017-06-28T11:38:15.066Z,24.80
2017-06-28T11:40:41.114Z,24.80
2017-06-28T11:43:07.262Z,24.80
2017-06-28T11:45:34.102Z,24.80
2017-06-28T11:48:00.885Z,24.80
2017-06-28T11:50:26.994Z,24.80
2017-06-28T11:52:53.104Z,24.90
2017-06-28T11:55:19.902Z,24.90
2017-06-28T11:57:46.029Z,24.90
2017-06-28T12:00:12.097Z,24.90
2017-06-28T12:02:38.909Z,24.90
2017-06-28T12:05:04.985Z,24.90
2017-06-28T12:07:31.067Z,24.90
2017-06-28T12:10:03.978Z,24.90
2017-06-28T12:12:30.129Z,24.90
2017-06-28T12:14:56.198Z,24.90
2017-06-28T12:17:22.242Z,24.90
2017-06-28T12:19:49.390Z,25.00
2017-06-28T12:22:15.463Z,25.00
2017-06-28T12:24:41.531Z,25.00
2017-06-28T12:27:07.605Z,25.00
2017-06-28T12:29:33.918Z,25.00
2017-06-28T12:32:00.744Z,25.00
2017-06-28T12:34:26.798Z,25.00
2017-06-28T12:36:52.850Z,25.10
2017-06-28T12:39:18.929Z,25.10
2017-06-28T12:41:45.226Z,25.10
2017-06-28T12:44:11.290Z,25.00
2017-06-28T12:46:37.361Z,25.00
2017-06-28T12:49:03.941Z,24.90
2017-06-28T12:51:30.018Z,24.90
2017-06-28T12:53:56.080Z,24.90
2017-06-28T12:56:22.138Z,24.90
2017-06-28T12:58:48.961Z,25.00
2017-06-28T13:01:15.015Z,25.00
2017-06-28T13:03:42.034Z,25.00
2017-06-28T13:06:08.123Z,25.00
2017-06-28T13:08:34.194Z,25.00
2017-06-28T13:11:00.266Z,25.20
2017-06-28T13:13:26.310Z,25.40
2017-06-28T13:15:52.393Z,25.60
2017-06-28T13:18:19.746Z,25.90
2017-06-28T13:20:45.828Z,26.00
2017-06-28T13:23:11.893Z,26.20
2017-06-28T13:25:38.010Z,26.40
2017-06-28T13:28:04.131Z,26.50
2017-06-28T13:30:30.176Z,26.60
2017-06-28T13:32:56.212Z,26.60
2017-06-28T13:35:23.055Z,26.70
2017-06-28T13:37:49.882Z,26.80
2017-06-28T13:40:15.986Z,26.80
2017-06-28T13:42:42.051Z,26.80
2017-06-28T13:45:08.865Z,26.70
2017-06-28T13:47:34.986Z,26.60
2017-06-28T13:50:01.026Z,26.50
2017-06-28T13:52:27.125Z,26.50
2017-06-28T13:54:53.190Z,26.80
2017-06-28T13:57:19.251Z,26.60
2017-06-28T13:59:45.315Z,26.40
2017-06-28T14:02:11.358Z,26.60
2017-06-28T14:04:37.488Z,27.00
2017-06-28T14:07:03.554Z,27.40
2017-06-28T14:09:29.812Z,27.60
2017-06-28T14:11:55.878Z,27.80
2017-06-28T14:14:22.029Z,27.80
2017-06-28T14:16:48.082Z,27.50
2017-06-28T14:19:14.151Z,27.40
2017-06-28T14:21:40.195Z,27.30
2017-06-28T14:24:06.358Z,27.20
2017-06-28T14:26:32.422Z,27.20
2017-06-28T14:29:13.452Z,27.20
2017-06-28T14:31:39.512Z,27.20
2017-06-28T14:34:05.570Z,27.10
2017-06-28T14:36:31.605Z,27.20
2017-06-28T14:38:57.662Z,27.20
2017-06-28T14:41:23.719Z,27.30
2017-06-28T14:43:49.815Z,27.20
2017-06-28T14:46:15.875Z,27.20
2017-06-28T14:48:41.927Z,27.40
2017-06-28T14:51:08.042Z,27.40
2017-06-28T14:53:34.110Z,27.30
2017-06-28T14:56:00.225Z,27.20
2017-06-28T14:58:26.301Z,27.30
2017-06-28T15:00:52.401Z,27.30
2017-06-28T15:03:19.456Z,27.30
2017-06-28T15:05:45.550Z,27.30
2017-06-28T15:08:12.371Z,27.40
2017-06-28T15:10:38.510Z,27.40
2017-06-28T15:13:04.715Z,27.40
2017-06-28T15:15:30.793Z,27.40
2017-06-28T15:17:57.569Z,27.30
2017-06-28T15:20:23.629Z,27.30
2017-06-28T15:22:49.683Z,27.30
2017-06-28T15:25:15.817Z,27.30
2017-06-28T15:27:41.976Z,27.20
2017-06-28T15:30:08.038Z,27.20
2017-06-28T15:32:34.129Z,27.20
2017-06-28T15:35:00.597Z,27.20
2017-06-28T15:37:26.681Z,27.10
2017-06-28T15:39:52.747Z,27.20
2017-06-28T15:42:18.795Z,27.10
2017-06-28T15:44:44.850Z,27.10
2017-06-28T15:47:10.890Z,27.10
2017-06-28T15:49:36.938Z,27.00
2017-06-28T15:52:17.985Z,27.00
2017-06-28T15:54:45.885Z,27.00
2017-06-28T15:57:12.254Z,27.00
2017-06-28T15:59:38.303Z,27.00
2017-06-28T16:02:04.366Z,27.00
2017-06-28T16:04:30.759Z,26.90
2017-06-28T16:06:56.827Z,26.80
2017-06-28T16:09:22.877Z,26.80
2017-06-28T16:11:48.921Z,26.80
2017-06-28T16:14:14.985Z,26.80
2017-06-28T16:16:41.037Z,26.80
2017-06-28T16:19:07.447Z,26.80
2017-06-28T16:21:48.460Z,26.70
2017-06-28T16:24:29.485Z,26.70
2017-06-28T16:26:55.525Z,26.60
2017-06-28T16:29:21.582Z,26.50
2017-06-28T16:31:47.642Z,26.50
2017-06-28T16:34:13.760Z,26.50
2017-06-28T16:36:40.590Z,26.60
2017-06-28T16:39:06.691Z,26.60
2017-06-28T16:41:32.756Z,26.50
2017-06-28T16:43:59.609Z,26.50
2017-06-28T16:46:25.732Z,26.50
2017-06-28T16:48:51.853Z,26.50
2017-06-28T16:51:17.905Z,26.50
2017-06-28T16:53:43.969Z,26.50
2017-06-28T16:56:10.078Z,26.50
2017-06-28T16:58:36.158Z,26.50
2017-06-28T17:01:02.458Z,26.40
2017-06-28T17:03:28.597Z,26.40
2017-06-28T17:05:54.646Z,26.40
2017-06-28T17:08:21.162Z,26.30
2017-06-28T17:10:47.249Z,26.30
2017-06-28T17:13:13.302Z,26.30
2017-06-28T17:15:39.370Z,26.20
2017-06-28T17:18:06.158Z,26.20
2017-06-28T17:20:32.209Z,26.20
2017-06-28T17:23:13.515Z,26.20
2017-06-28T17:25:39.609Z,26.20
2017-06-28T17:28:05.683Z,26.20
2017-06-28T17:30:32.679Z,26.20
2017-06-28T17:32:58.855Z,26.20
2017-06-28T17:35:24.991Z,26.10
2017-06-28T17:37:51.147Z,26.10
2017-06-28T17:40:17.201Z,26.10
2017-06-28T17:42:43.312Z,26.10
2017-06-28T17:45:09.642Z,26.10
2017-06-28T17:47:35.698Z,26.10
2017-06-28T17:50:01.747Z,26.10
2017-06-28T17:52:27.786Z,26.10
2017-06-28T17:57:29.690Z,26.00
2017-06-28T17:59:55.751Z,26.00
2017-06-28T18:02:21.877Z,26.00
2017-06-28T18:04:47.938Z,26.00
2017-06-28T18:07:14.049Z,26.00
2017-06-28T18:09:40.109Z,26.00
2017-06-28T18:12:06.189Z,26.00
2017-06-28T18:14:32.249Z,26.00
2017-06-28T18:16:59.469Z,25.90
2017-06-28T18:19:25.609Z,25.90
2017-06-28T18:21:51.820Z,26.00
2017-06-28T18:24:17.914Z,25.90
2017-06-28T18:26:43.978Z,25.90
2017-06-28T18:29:10.089Z,25.90
2017-06-28T18:31:36.134Z,25.90
2017-06-28T18:34:02.177Z,25.90
2017-06-28T18:36:28.319Z,25.90
2017-06-28T18:38:54.432Z,25.90
2017-06-28T18:41:20.474Z,25.80
2017-06-28T18:44:01.580Z,25.80
2017-06-28T18:46:27.649Z,25.80
2017-06-28T18:48:54.464Z,25.80
2017-06-28T18:51:20.604Z,25.80
2017-06-28T18:53:46.658Z,25.70
2017-06-28T18:56:13.458Z,25.70
2017-06-28T18:58:54.459Z,25.70
2017-06-28T19:01:28.362Z,25.70
2017-06-28T19:03:54.503Z,25.70
2017-06-28T19:06:20.638Z,25.70
2017-06-28T19:08:46.677Z,25.70
2017-06-28T19:11:12.798Z,25.60
2017-06-28T19:13:39.079Z,25.70
2017-06-28T19:16:05.151Z,25.70
2017-06-28T19:18:31.202Z,25.70
2017-06-28T19:20:57.247Z,25.70
2017-06-28T19:23:23.304Z,25.60
2017-06-28T19:25:49.356Z,25.60
2017-06-28T19:28:15.410Z,25.60
2017-06-28T19:30:41.450Z,25.60
2017-06-28T19:33:07.504Z,25.60
2017-06-28T19:35:33.650Z,25.60
2017-06-28T19:37:59.705Z,25.50
2017-06-28T19:40:26.524Z,25.50
2017-06-28T19:42:52.578Z,25.50
2017-06-28T19:45:18.629Z,25.50
2017-06-28T19:47:59.677Z,25.50
2017-06-28T19:50:26.485Z,25.50
2017-06-28T19:52:52.539Z,25.50
2017-06-28T19:55:18.586Z,25.50
2017-06-28T19:57:44.737Z,25.50
2017-06-28T20:00:25.734Z,25.50
2017-06-28T20:02:51.792Z,25.50
2017-06-28T20:05:18.636Z,25.40
2017-06-28T20:07:44.719Z,25.40
2017-06-28T20:10:10.766Z,25.40
2017-06-28T20:12:36.819Z,25.40
2017-06-28T20:15:02.865Z,25.40
2017-06-28T20:17:28.931Z,25.40
2017-06-28T20:19:55.270Z,25.40
2017-06-28T20:22:21.315Z,25.30
2017-06-28T20:24:47.374Z,25.30
2017-06-28T20:27:13.442Z,25.30
2017-06-28T20:29:39.516Z,25.30
2017-06-28T20:32:05.589Z,25.30
2017-06-28T20:34:31.647Z,25.20
2017-06-28T20:36:57.711Z,25.20
2017-06-28T20:39:23.757Z,25.20
2017-06-28T20:41:50.120Z,25.20
2017-06-28T20:44:16.219Z,25.10
2017-06-28T20:46:42.310Z,25.10
2017-06-28T20:49:08.364Z,25.10
2017-06-28T20:51:34.457Z,25.20
2017-06-28T20:54:00.514Z,25.30
2017-06-28T20:56:26.603Z,25.20
2017-06-28T20:58:53.763Z,25.10
2017-06-28T21:01:19.825Z,25.10
2017-06-28T21:03:46.218Z,25.10
2017-06-28T21:06:12.279Z,25.10
2017-06-28T21:08:38.353Z,25.00
2017-06-28T21:11:04.473Z,25.00
2017-06-28T21:13:45.501Z,25.00
2017-06-28T21:16:11.645Z,25.10
2017-06-28T21:18:37.859Z,25.10
2017-06-28T21:21:03.939Z,25.00
2017-06-28T21:23:30.090Z,25.00
2017-06-28T21:25:56.375Z,25.00
2017-06-28T21:28:22.458Z,25.00
2017-06-28T21:30:48.510Z,25.00
2017-06-28T21:33:14.575Z,25.00
2017-06-28T21:35:40.620Z,24.90
2017-06-28T21:38:06.689Z,24.90
2017-06-28T21:40:32.770Z,24.90
2017-06-28T21:42:58.814Z,24.90
2017-06-28T21:45:24.884Z,24.80
2017-06-28T21:47:51.203Z,24.90
2017-06-28T21:50:17.262Z,24.80
2017-06-28T21:52:44.102Z,24.80
2017-06-28T21:55:25.123Z,24.80
2017-06-28T21:57:51.178Z,24.90
2017-06-28T22:00:17.233Z,24.80
2017-06-28T22:02:43.283Z,24.80
2017-06-28T22:05:09.345Z,24.80
2017-06-28T22:07:35.394Z,24.90
2017-06-28T22:10:01.719Z,24.80
2017-06-28T22:12:27.783Z,24.80
2017-06-28T22:14:53.844Z,24.70
2017-06-28T22:17:32.277Z,24.70
2017-06-28T22:19:58.377Z,24.80
2017-06-28T22:22:24.437Z,24.70
2017-06-28T22:24:50.506Z,24.70
2017-06-28T22:27:16.563Z,24.70
2017-06-28T22:29:42.613Z,24.70
2017-06-28T22:32:08.842Z,24.70
2017-06-28T22:34:34.902Z,24.60
2017-06-28T22:37:00.941Z,24.70
2017-06-28T22:39:27.010Z,24.60
2017-06-28T22:41:53.071Z,24.70
2017-06-28T22:44:19.117Z,24.60
2017-06-28T22:46:45.170Z,24.60
2017-06-28T22:49:11.217Z,24.60
2017-06-28T22:51:37.286Z,24.60
2017-06-28T22:54:03.381Z,24.70
2017-06-28T22:56:29.458Z,24.70
2017-06-28T22:58:56.275Z,24.60
2017-06-28T23:01:23.108Z,24.50
2017-06-28T23:03:49.157Z,24.50
2017-06-28T23:06:15.210Z,24.50
2017-06-28T23:08:41.266Z,24.50
2017-06-28T23:11:22.318Z,24.50
2017-06-28T23:13:48.390Z,24.50
2017-06-28T23:16:14.441Z,24.50
2017-06-28T23:18:40.493Z,24.50
2017-06-28T23:21:06.574Z,24.50
2017-06-28T23:23:32.649Z,24.60
2017-06-28T23:26:13.670Z,24.50
2017-06-28T23:28:39.725Z,24.40
2017-06-28T23:31:05.781Z,24.50
2017-06-28T23:33:32.369Z,24.40
2017-06-28T23:35:58.445Z,24.30
2017-06-28T23:38:24.510Z,24.30
2017-06-28T23:40:50.585Z,24.20
2017-06-28T23:43:17.369Z,24.30
2017-06-28T23:45:43.426Z,24.30
2017-06-28T23:48:09.495Z,24.30
2017-06-28T23:50:35.547Z,24.30
2017-06-28T23:53:01.602Z,24.30
2017-06-28T23:55:27.686Z,24.20
2017-06-28T23:57:53.757Z,24.20
